createdAt,value
2018-12-23T00:00:47.206Z,5.20
2018-12-23T00:03:14.645Z,10.47
2018-12-23T00:05:42.976Z,10.20
2018-12-23T00:08:10.455Z,8.97
2018-12-23T00:10:37.963Z,10.40
2018-12-23T00:13:05.369Z,7.80
2018-12-23T00:15:32.796Z,11.30
2018-12-23T00:18:00.285Z,8.73
2018-12-23T00:20:27.686Z,6.53
2018-12-23T00:22:55.141Z,10.23
2018-12-23T00:25:23.474Z,4.93
2018-12-23T00:27:50.983Z,8.63
2018-12-23T00:30:18.542Z,11.80
2018-12-23T00:32:45.953Z,12.23
2018-12-23T00:35:20.349Z,13.23
2018-12-23T00:37:42.788Z,13.90
2018-12-23T00:40:10.274Z,13.00
2018-12-23T00:42:37.645Z,12.27
2018-12-23T00:45:05.613Z,11.27
2018-12-23T00:47:33.026Z,7.07
2018-12-23T00:50:00.525Z,9.00
2018-12-23T00:52:27.944Z,10.47
2018-12-23T00:54:55.426Z,10.97
2018-12-23T00:57:22.847Z,9.87
2018-12-23T00:59:50.258Z,8.60
2018-12-23T01:02:17.737Z,7.53
2018-12-23T01:04:45.285Z,10.30
2018-12-23T01:07:12.800Z,8.47
2018-12-23T01:09:40.277Z,11.37
2018-12-23T01:12:07.700Z,13.70
2018-12-23T01:14:35.117Z,9.60
2018-12-23T01:17:02.575Z,13.27
2018-12-23T01:19:29.986Z,9.90
2018-12-23T01:21:57.402Z,7.83
2018-12-23T01:24:24.811Z,9.97
2018-12-23T01:26:52.216Z,8.87
2018-12-23T01:29:19.637Z,9.60
2018-12-23T01:31:47.086Z,12.87
2018-12-23T01:34:14.516Z,8.00
2018-12-23T01:36:41.905Z,8.80
2018-12-23T01:39:09.339Z,10.07
2018-12-23T01:41:37.060Z,12.67
2018-12-23T01:44:04.458Z,7.50
2018-12-23T01:46:31.954Z,10.80
2018-12-23T01:48:59.362Z,10.37
2018-12-23T01:51:27.990Z,12.27
2018-12-23T01:53:55.458Z,7.97
2018-12-23T01:56:22.894Z,8.80
2018-12-23T01:58:50.301Z,12.90
2018-12-23T02:01:17.748Z,10.47
2018-12-23T02:03:45.173Z,12.27
2018-12-23T02:06:13.440Z,10.23
2018-12-23T02:08:41.006Z,9.60
2018-12-23T02:11:09.240Z,10.97
2018-12-23T02:13:36.705Z,7.73
2018-12-23T02:16:04.270Z,11.03
2018-12-23T02:18:31.780Z,14.03
2018-12-23T02:20:59.190Z,6.93
2018-12-23T02:23:26.589Z,8.07
2018-12-23T02:25:53.993Z,6.23
2018-12-23T02:28:21.413Z,8.73
2018-12-23T02:30:48.817Z,9.33
2018-12-23T02:33:16.298Z,11.97
2018-12-23T02:35:43.768Z,8.97
2018-12-23T02:38:11.175Z,11.77
2018-12-23T02:40:38.646Z,9.93
2018-12-23T02:43:06.066Z,6.97
2018-12-23T02:45:33.475Z,8.63
2018-12-23T02:48:00.949Z,6.97
2018-12-23T02:50:29.657Z,10.10
2018-12-23T02:52:57.062Z,6.80
2018-12-23T02:55:24.549Z,10.70
2018-12-23T02:57:52.114Z,9.40
2018-12-23T03:00:19.613Z,9.37
2018-12-23T03:02:47.065Z,12.87
2018-12-23T03:05:14.532Z,6.67
2018-12-23T03:07:42.006Z,10.93
2018-12-23T03:10:09.524Z,6.47
2018-12-23T03:12:37.023Z,8.47
2018-12-23T03:15:04.549Z,11.40
2018-12-23T03:17:32.181Z,7.80
2018-12-23T03:19:59.837Z,9.17
2018-12-23T03:22:27.397Z,9.60
2018-12-23T03:24:54.962Z,11.80
2018-12-23T03:27:22.637Z,9.77
2018-12-23T03:29:50.110Z,12.23
2018-12-23T03:32:17.538Z,7.43
2018-12-23T03:34:45.018Z,7.77
2018-12-23T03:37:12.490Z,8.10
2018-12-23T03:39:40.002Z,10.37
2018-12-23T03:42:07.471Z,14.27
2018-12-23T03:44:34.941Z,8.07
2018-12-23T03:47:02.371Z,6.97
2018-12-23T03:49:29.801Z,4.40
2018-12-23T03:52:00.302Z,12.37
2018-12-23T03:54:27.777Z,6.70
2018-12-23T03:56:55.188Z,10.70
2018-12-23T03:59:22.589Z,10.93
2018-12-23T04:01:50.229Z,12.30
2018-12-23T04:04:17.701Z,9.27
2018-12-23T04:06:45.101Z,8.37
2018-12-23T04:09:12.520Z,14.30
2018-12-23T04:11:39.998Z,6.73
2018-12-23T04:14:07.473Z,15.77
2018-12-23T04:16:35.028Z,11.17
2018-12-23T04:19:02.506Z,13.67
2018-12-23T04:21:29.985Z,12.77
2018-12-23T04:23:57.470Z,10.77
2018-12-23T04:26:24.881Z,7.97
2018-12-23T04:28:52.363Z,9.87
2018-12-23T04:31:19.850Z,15.47
2018-12-23T04:33:47.252Z,11.97
2018-12-23T04:36:14.712Z,8.37
2018-12-23T04:38:42.133Z,9.90
2018-12-23T04:41:09.561Z,13.33
2018-12-23T04:43:37.460Z,8.33
2018-12-23T04:46:04.885Z,9.90
2018-12-23T04:48:32.299Z,8.63
2018-12-23T04:50:59.785Z,10.20
2018-12-23T04:53:27.197Z,11.30
2018-12-23T04:55:54.611Z,12.10
2018-12-23T04:58:22.100Z,18.60
2018-12-23T05:00:49.644Z,10.47
2018-12-23T05:03:17.561Z,9.23
2018-12-23T05:05:44.957Z,9.77
2018-12-23T05:08:12.369Z,9.77
2018-12-23T05:10:39.805Z,14.33
2018-12-23T05:13:07.214Z,6.73
2018-12-23T05:15:34.613Z,10.33
2018-12-23T05:18:02.029Z,7.07
2018-12-23T05:20:29.505Z,21.63
2018-12-23T05:22:56.985Z,10.33
2018-12-23T05:25:24.384Z,8.97
2018-12-23T05:27:51.872Z,6.10
2018-12-23T05:30:19.285Z,11.93
2018-12-23T05:32:46.751Z,8.20
2018-12-23T05:35:14.202Z,9.90
2018-12-23T05:37:41.669Z,12.07
2018-12-23T05:40:09.204Z,15.80
2018-12-23T05:42:36.653Z,10.20
2018-12-23T05:45:04.157Z,13.27
2018-12-23T05:47:31.568Z,10.73
2018-12-23T05:49:59.993Z,9.73
2018-12-23T05:52:27.414Z,12.60
2018-12-23T05:54:54.819Z,15.67
2018-12-23T05:57:22.428Z,9.10
2018-12-23T05:59:50.185Z,15.07
2018-12-23T06:02:17.549Z,9.77
2018-12-23T06:04:44.957Z,10.60
2018-12-23T06:07:12.369Z,7.70
2018-12-23T06:09:39.784Z,15.70
2018-12-23T06:12:07.209Z,11.70
2018-12-23T06:14:34.714Z,11.23
2018-12-23T06:17:02.121Z,8.27
2018-12-23T06:19:29.638Z,10.60
2018-12-23T06:21:57.018Z,13.27
2018-12-23T06:24:24.442Z,18.43
2018-12-23T06:26:51.878Z,15.07
2018-12-23T06:29:19.286Z,10.37
2018-12-23T06:31:46.701Z,9.50
2018-12-23T06:34:14.131Z,10.40
2018-12-23T06:36:41.537Z,11.87
2018-12-23T06:39:08.964Z,11.57
2018-12-23T06:41:36.470Z,9.17
2018-12-23T06:44:03.858Z,11.90
2018-12-23T06:46:31.381Z,9.13
2018-12-23T06:48:58.929Z,10.10
2018-12-23T06:51:28.098Z,9.07
2018-12-23T06:53:55.571Z,10.90
2018-12-23T06:56:23.057Z,10.40
2018-12-23T06:58:50.482Z,8.97
2018-12-23T07:01:17.886Z,10.10
2018-12-23T07:03:45.483Z,10.17
2018-12-23T07:06:13.043Z,7.63
2018-12-23T07:08:40.623Z,6.97
2018-12-23T07:11:08.114Z,6.53
2018-12-23T07:13:35.603Z,10.43
2018-12-23T07:16:03.898Z,8.17
2018-12-23T07:18:32.560Z,8.97
2018-12-23T07:21:00.400Z,10.47
2018-12-23T07:23:28.105Z,13.63
2018-12-23T07:25:55.676Z,9.80
2018-12-23T07:28:23.435Z,7.77
2018-12-23T07:30:50.991Z,10.23
2018-12-23T07:33:18.655Z,9.93
2018-12-23T07:35:46.506Z,11.43
2018-12-23T07:38:14.199Z,6.63
2018-12-23T07:40:41.629Z,9.00
2018-12-23T07:43:09.216Z,15.77
2018-12-23T07:45:36.660Z,8.30
2018-12-23T07:48:04.107Z,10.53
2018-12-23T07:50:31.526Z,5.73
2018-12-23T07:52:58.936Z,11.60
2018-12-23T07:55:26.414Z,10.37
2018-12-23T07:57:53.868Z,4.73
2018-12-23T08:00:21.345Z,6.23
2018-12-23T08:02:48.745Z,8.90
2018-12-23T08:05:16.182Z,10.20
2018-12-23T08:07:43.665Z,9.77
2018-12-23T08:10:11.069Z,8.53
2018-12-23T08:12:38.503Z,8.77
2018-12-23T08:15:06.090Z,5.40
2018-12-23T08:17:33.601Z,6.70
2018-12-23T08:20:01.004Z,10.17
2018-12-23T08:22:28.430Z,8.60
2018-12-23T08:24:57.137Z,12.53
2018-12-23T08:27:24.799Z,7.93
2018-12-23T08:29:52.280Z,9.70
2018-12-23T08:32:19.761Z,13.03
2018-12-23T08:34:48.409Z,10.70
2018-12-23T08:37:15.842Z,7.13
2018-12-23T08:39:43.261Z,12.20
2018-12-23T08:42:10.665Z,8.80
2018-12-23T08:44:38.123Z,5.67
2018-12-23T08:47:05.685Z,4.23
2018-12-23T08:49:33.117Z,12.47
2018-12-23T08:52:00.525Z,10.53
2018-12-23T08:54:27.936Z,6.67
2018-12-23T08:56:55.421Z,11.43
2018-12-23T08:59:22.907Z,11.80
2018-12-23T09:01:50.320Z,14.97
2018-12-23T09:04:17.758Z,13.13
2018-12-23T09:06:45.195Z,8.13
2018-12-23T09:09:12.678Z,8.50
2018-12-23T09:11:43.014Z,10.93
2018-12-23T09:14:09.489Z,13.10
2018-12-23T09:16:36.947Z,15.37
2018-12-23T09:19:04.425Z,9.93
2018-12-23T09:21:31.948Z,6.90
2018-12-23T09:23:59.439Z,12.50
2018-12-23T09:26:28.048Z,12.43
2018-12-23T09:28:55.458Z,9.83
2018-12-23T09:31:22.933Z,15.30
2018-12-23T09:33:50.346Z,9.63
2018-12-23T09:36:17.761Z,14.00
2018-12-23T09:38:45.233Z,12.03
2018-12-23T09:41:12.642Z,13.70
2018-12-23T09:43:40.076Z,16.77
2018-12-23T09:46:07.498Z,12.40
2018-12-23T09:48:36.340Z,18.03
2018-12-23T09:51:03.830Z,14.77
2018-12-23T09:53:31.228Z,10.40
2018-12-23T09:55:58.677Z,13.97
2018-12-23T09:58:26.084Z,9.90
2018-12-23T10:00:53.509Z,14.43
2018-12-23T10:03:20.948Z,11.23
2018-12-23T10:05:48.404Z,16.03
2018-12-23T10:08:15.886Z,13.43
2018-12-23T10:10:43.333Z,10.97
2018-12-23T10:13:10.800Z,14.67
2018-12-23T10:15:38.241Z,15.00
2018-12-23T10:18:05.656Z,15.80
2018-12-23T10:20:33.064Z,19.63
2018-12-23T10:23:00.498Z,16.30
2018-12-23T10:25:28.021Z,14.73
2018-12-23T10:27:56.390Z,18.33
2018-12-23T10:30:23.869Z,17.27
2018-12-23T10:32:51.329Z,10.10
2018-12-23T10:35:18.765Z,8.43
2018-12-23T10:37:46.289Z,13.40
2018-12-23T10:40:13.717Z,13.67
2018-12-23T10:42:41.246Z,14.37
2018-12-23T10:45:09.630Z,20.50
2018-12-23T10:47:37.046Z,12.70
2018-12-23T10:50:05.006Z,16.37
2018-12-23T10:52:32.421Z,18.37
2018-12-23T10:54:59.914Z,16.27
2018-12-23T10:57:27.324Z,12.07
2018-12-23T10:59:54.749Z,14.27
2018-12-23T11:02:22.173Z,12.00
2018-12-23T11:04:49.590Z,17.17
2018-12-23T11:07:17.110Z,17.53
2018-12-23T11:09:44.598Z,9.90
2018-12-23T11:12:12.015Z,13.53
2018-12-23T11:14:39.573Z,15.50
2018-12-23T11:17:07.029Z,14.90
2018-12-23T11:19:34.581Z,17.43
2018-12-23T11:22:02.037Z,15.53
2018-12-23T11:24:29.459Z,17.87
2018-12-23T11:26:56.969Z,15.20
2018-12-23T11:29:25.007Z,14.73
2018-12-23T11:31:52.582Z,16.33
2018-12-23T11:34:19.988Z,14.13
2018-12-23T11:36:47.397Z,15.73
2018-12-23T11:39:14.901Z,17.83
2018-12-23T11:41:42.374Z,13.57
2018-12-23T11:44:09.817Z,12.53
2018-12-23T11:46:37.233Z,13.87
2018-12-23T11:49:04.674Z,13.07
2018-12-23T11:51:32.283Z,16.43
2018-12-23T11:53:59.959Z,11.07
2018-12-23T11:56:27.360Z,12.37
2018-12-23T11:58:54.928Z,23.17
2018-12-23T12:01:22.578Z,18.13
2018-12-23T12:03:49.998Z,13.60
2018-12-23T12:06:17.493Z,17.03
2018-12-23T12:08:44.944Z,15.50
2018-12-23T12:11:12.352Z,10.50
2018-12-23T12:13:39.765Z,13.77
2018-12-23T12:16:07.294Z,17.57
2018-12-23T12:18:34.706Z,18.03
2018-12-23T12:21:02.550Z,14.70
2018-12-23T12:23:30.026Z,21.67
2018-12-23T12:25:57.450Z,18.83
2018-12-23T12:28:24.869Z,21.40
2018-12-23T12:30:52.321Z,17.40
2018-12-23T12:33:19.727Z,14.13
2018-12-23T12:35:47.202Z,17.33
2018-12-23T12:38:14.609Z,17.27
2018-12-23T12:40:42.060Z,21.77
2018-12-23T12:43:09.551Z,20.23
2018-12-23T12:45:36.948Z,17.30
2018-12-23T12:48:04.448Z,21.27
2018-12-23T12:50:31.837Z,16.73
2018-12-23T12:52:59.313Z,23.73
2018-12-23T12:55:26.733Z,15.73
2018-12-23T12:57:54.136Z,14.83
2018-12-23T13:00:21.552Z,24.60
2018-12-23T13:02:48.964Z,22.13
2018-12-23T13:05:16.377Z,18.87
2018-12-23T13:07:43.822Z,23.00
2018-12-23T13:10:11.278Z,15.57
2018-12-23T13:12:38.693Z,18.93
2018-12-23T13:15:06.152Z,23.23
2018-12-23T13:17:33.570Z,24.77
2018-12-23T13:20:00.980Z,20.77
2018-12-23T13:22:28.882Z,26.43
2018-12-23T13:24:56.254Z,31.90
2018-12-23T13:27:23.672Z,22.33
2018-12-23T13:29:51.081Z,19.03
2018-12-23T13:32:18.501Z,15.37
2018-12-23T13:34:45.934Z,27.27
2018-12-23T13:37:13.437Z,20.30
2018-12-23T13:39:40.873Z,18.17
2018-12-23T13:42:13.049Z,20.87
2018-12-23T13:44:42.392Z,23.50
2018-12-23T13:50:57.894Z,19.63
2018-12-23T13:53:30.399Z,21.73
2018-12-23T13:56:18.356Z,16.20
2018-12-23T13:58:48.058Z,19.13
2018-12-23T14:01:30.312Z,17.27
2018-12-23T14:04:17.537Z,19.67
2018-12-23T14:06:47.562Z,17.27
2018-12-23T14:09:19.904Z,12.10
2018-12-23T14:11:56.747Z,10.67
2018-12-23T14:14:24.970Z,17.37
2018-12-23T14:16:53.127Z,9.53
2018-12-23T14:19:21.311Z,14.13
2018-12-23T14:21:49.477Z,12.97
2018-12-23T14:24:17.628Z,10.13
2018-12-23T14:26:49.499Z,14.23
2018-12-23T14:29:17.854Z,10.33
2018-12-23T14:31:46.016Z,11.57
2018-12-23T14:34:14.170Z,16.50
2018-12-23T14:36:42.587Z,16.20
2018-12-23T14:39:10.755Z,14.00
2018-12-23T14:41:38.907Z,8.53
2018-12-23T14:44:07.067Z,9.23
2018-12-23T14:46:54.555Z,12.93
2018-12-23T15:10:23.193Z,6.20
2018-12-23T20:47:21.051Z,27.80
2018-12-23T20:56:08.458Z,22.60
2018-12-23T20:58:38.160Z,25.97
2018-12-23T21:01:19.802Z,23.03
2018-12-23T21:03:49.503Z,21.83
2018-12-23T21:06:35.482Z,23.83
2018-12-23T21:09:14.387Z,22.70
2018-12-23T21:11:53.693Z,21.57
2018-12-23T21:14:30.439Z,17.57
2018-12-23T21:17:06.029Z,16.13
2018-12-23T21:19:54.896Z,11.43
2018-12-23T21:22:28.054Z,7.77
2018-12-23T21:24:57.738Z,4.43
2018-12-23T21:27:36.136Z,5.20
2018-12-23T21:30:08.734Z,3.17
2018-12-23T21:32:41.182Z,2.33
2018-12-23T21:35:17.070Z,2.00
2018-12-23T21:37:50.710Z,4.13
2018-12-23T21:40:20.676Z,2.97
2018-12-23T21:42:50.389Z,3.40
2018-12-23T21:45:35.420Z,1.53
2018-12-23T21:48:14.254Z,1.97
2018-12-23T21:50:52.913Z,2.73
2018-12-23T21:53:41.611Z,1.70
2018-12-23T21:56:17.242Z,3.53
2018-12-23T21:58:49.766Z,1.47
2018-12-23T22:01:28.598Z,1.73
2018-12-23T22:03:58.354Z,2.77
2018-12-23T22:06:30.962Z,2.83
2018-12-23T22:09:17.107Z,2.77
2018-12-23T22:11:49.851Z,1.80
2018-12-23T22:14:18.018Z,3.87
2018-12-23T22:16:46.170Z,3.40
2018-12-23T22:19:14.334Z,2.00
2018-12-23T22:21:42.837Z,2.50
2018-12-23T22:24:10.987Z,2.80
2018-12-23T22:26:39.158Z,2.70
2018-12-23T22:29:07.298Z,4.03
2018-12-23T22:31:35.451Z,1.83
2018-12-23T22:34:03.642Z,7.30
2018-12-23T22:36:31.777Z,2.70
2018-12-23T22:38:59.929Z,2.40
2018-12-23T22:41:28.095Z,2.30
2018-12-23T22:43:56.274Z,2.77
2018-12-23T22:46:24.421Z,3.60
2018-12-23T22:48:52.566Z,2.40
2018-12-23T22:51:21.445Z,1.50
2018-12-23T22:53:49.695Z,2.40
2018-12-23T22:56:17.858Z,1.40
2018-12-23T22:58:45.999Z,1.27
2018-12-23T23:01:14.960Z,0.80
2018-12-23T23:03:43.179Z,0.47
2018-12-23T23:06:11.324Z,1.47
2018-12-23T23:08:39.471Z,1.50
2018-12-23T23:11:07.635Z,1.70
2018-12-23T23:13:35.817Z,1.27
2018-12-23T23:16:03.959Z,1.20
2018-12-23T23:18:32.126Z,1.47
2018-12-23T23:21:00.287Z,1.60
2018-12-23T23:23:29.133Z,1.80
2018-12-23T23:25:57.359Z,0.80
2018-12-23T23:28:25.512Z,0.93
2018-12-23T23:30:53.666Z,1.93
2018-12-23T23:33:21.816Z,1.80
2018-12-23T23:35:49.983Z,0.40
2018-12-23T23:38:18.126Z,0.17
2018-12-23T23:40:46.292Z,1.33
2018-12-23T23:43:14.444Z,1.47
2018-12-23T23:45:42.608Z,0.60
2018-12-23T23:48:10.767Z,0.53
2018-12-23T23:50:38.912Z,0.27
2018-12-23T23:53:07.051Z,3.40
2018-12-23T23:55:35.314Z,0.10
2018-12-23T23:58:03.475Z,0.53
